Time;durP1;ratioP1;P1;durP2;ratioP2;P2;SDS_P1;SDS_P2;PMS_P1;PMS_P2;Temp;Humidity;BMP_temperature;BMP_pressure;BME280_temperature;BME280_humidity;BME280_pressure;Samples;Min_cycle;Max_cycle;Signal;HPM_P1;HPM_P2
2022/06/17 00:01:19;;;;;;;;;;;;;;;18.44;55.86;102277.34;5063198;28;20001;-60
2022/06/17 00:03:44;;;;;;;;;;;;;;;18.39;56.64;102275.19;5063899;28;19924;-59
2022/06/17 00:06:11;;;;;;;;;;;;;;;18.35;56.48;102269.34;5063849;28;19929;-60
2022/06/17 00:08:39;;;;;;;;;;;;;;;18.35;56.25;102277.41;5063919;28;19990;-60
2022/06/17 00:11:15;;;;;;;;;;;;;;;18.34;56.50;102272.19;5062695;28;20044;-60
2022/06/17 00:13:40;;;;;;;;;;;;;;;18.33;56.94;102267.84;5062759;28;19978;-60
2022/06/17 00:16:13;;;;;;;;;;;;;;;18.31;56.66;102268.03;5058324;28;19967;-61
2022/06/17 00:18:39;;;;;;;;;;;;;;;18.30;56.55;102277.09;5058299;28;20375;-61
2022/06/17 00:21:04;;;;;;;;;;;;;;;18.28;56.36;102279.13;5062730;28;20157;-62
2022/06/17 00:23:29;;;;;;;;;;;;;;;18.26;56.84;102286.53;5004138;28;1731703;-60
2022/06/17 00:25:55;;;;;;;;;;;;;;;18.24;57.73;102288.53;5058634;28;19970;-59
2022/06/17 00:28:21;;;;;;;;;;;;;;;18.14;57.13;102284.25;5065520;28;19959;-60
2022/06/17 00:30:47;;;;;;;;;;;;;;;18.10;57.20;102285.59;5062996;28;19925;-59
2022/06/17 00:33:13;;;;;;;;;;;;;;;18.07;56.80;102275.25;5064697;28;19935;-60
2022/06/17 00:35:41;;;;;;;;;;;;;;;18.06;56.91;102281.59;5064080;28;20685;-60
2022/06/17 00:38:10;;;;;;;;;;;;;;;18.02;57.73;102270.34;5062690;28;19924;-60
2022/06/17 00:40:36;;;;;;;;;;;;;;;17.98;56.95;102279.78;5074842;28;19925;-61
2022/06/17 00:43:02;;;;;;;;;;;;;;;17.98;57.07;102295.88;5064902;28;19931;-60
2022/06/17 00:45:29;;;;;;;;;;;;;;;18.00;57.30;102298.38;5064843;28;19920;-60
2022/06/17 00:48:13;;;;;;;;;;;;;;;17.97;57.29;102283.44;5041556;28;19982;-60
2022/06/17 00:50:53;;;;;;;;;;;;;;;17.94;57.59;102282.97;5060311;28;19931;-60
2022/06/17 00:53:21;;;;;;;;;;;;;;;17.93;57.44;102286.66;5069891;28;19947;-60
2022/06/17 00:55:55;;;;;;;;;;;;;;;17.94;57.90;102277.59;5061721;28;19924;-61
2022/06/17 00:58:25;;;;;;;;;;;;;;;17.90;58.75;102276.31;5061078;28;20051;-59
2022/06/17 01:00:54;;;;;;;;;;;;;;;17.79;58.17;102269.47;5061576;28;19982;-60
2022/06/17 01:03:23;;;;;;;;;;;;;;;17.66;60.27;102291.50;5059612;28;19925;-60
2022/06/17 01:05:54;;;;;;;;;;;;;;;17.58;58.73;102290.50;5062859;28;20398;-60
2022/06/17 01:11:08;;;;;;;;;;;;;;;17.63;58.38;102281.09;5058091;28;19935;-59
2022/06/17 01:13:33;;;;;;;;;;;;;;;17.64;58.22;102275.56;5064577;28;19924;-60
2022/06/17 01:15:59;;;;;;;;;;;;;;;17.64;58.26;102277.41;5077286;28;19955;-60
2022/06/17 01:18:24;;;;;;;;;;;;;;;17.65;58.25;102284.47;5062116;28;20413;-60
2022/06/17 01:20:54;;;;;;;;;;;;;;;17.65;58.09;102289.81;5054906;28;19924;-59
2022/06/17 01:23:20;;;;;;;;;;;;;;;17.64;58.23;102286.28;5060882;28;19994;-61
2022/06/17 01:25:45;;;;;;;;;;;;;;;17.66;58.11;102286.94;5064346;28;20005;-60
2022/06/17 01:28:13;;;;;;;;;;;;;;;17.66;57.87;102278.91;5062926;28;20498;-61
2022/06/17 01:30:40;;;;;;;;;;;;;;;17.64;58.42;102267.53;5061068;28;19928;-60
2022/06/17 01:33:05;;;;;;;;;;;;;;;17.63;58.30;102275.72;5045129;28;19931;-61
2022/06/17 01:35:35;;;;;;;;;;;;;;;17.59;58.28;102278.78;5059682;28;19924;-60
2022/06/17 01:38:00;;;;;;;;;;;;;;;17.54;58.43;102281.13;5061897;28;19924;-60
2022/06/17 01:40:28;;;;;;;;;;;;;;;17.52;58.30;102274.28;5061194;28;19970;-60
2022/06/17 01:42:54;;;;;;;;;;;;;;;17.51;58.06;102272.59;5064134;28;19925;-61
2022/06/17 01:45:19;;;;;;;;;;;;;;;17.50;58.33;102287.84;5060886;28;19950;-61
2022/06/17 01:47:44;;;;;;;;;;;;;;;17.47;58.60;102277.47;5058213;28;20582;-59
2022/06/17 01:50:14;;;;;;;;;;;;;;;17.46;58.60;102278.47;5061395;28;19929;-59
2022/06/17 01:53:05;;;;;;;;;;;;;;;17.44;59.03;102277.81;5061380;28;19968;-60
2022/06/17 01:55:42;;;;;;;;;;;;;;;17.41;58.88;102278.16;5054676;28;19929;-61
2022/06/17 01:58:12;;;;;;;;;;;;;;;17.41;58.53;102283.53;5066851;28;19929;-60
2022/06/17 02:00:40;;;;;;;;;;;;;;;17.40;58.45;102287.19;5059325;28;20664;-60
2022/06/17 02:03:08;;;;;;;;;;;;;;;17.36;58.90;102280.53;5059714;28;20555;-60
2022/06/17 02:05:34;;;;;;;;;;;;;;;17.33;58.78;102277.16;5062493;28;19951;-60
2022/06/17 02:08:00;;;;;;;;;;;;;;;17.32;58.87;102278.16;5061372;28;19936;-60
2022/06/17 02:10:27;;;;;;;;;;;;;;;17.32;59.16;102280.84;5062169;28;20030;-60
2022/06/17 02:12:53;;;;;;;;;;;;;;;17.30;59.36;102274.84;5062721;28;19975;-59
2022/06/17 02:15:19;;;;;;;;;;;;;;;17.27;59.38;102280.53;5060357;28;19928;-59
2022/06/17 02:17:45;;;;;;;;;;;;;;;17.26;58.93;102270.00;5062372;28;19924;-61
2022/06/17 02:20:12;;;;;;;;;;;;;;;17.25;58.94;102271.81;5060117;28;20042;-60
2022/06/17 02:22:37;;;;;;;;;;;;;;;17.22;59.49;102280.19;5049122;28;19924;-60
2022/06/17 02:25:05;;;;;;;;;;;;;;;17.22;60.10;102274.84;5043463;28;19924;-60
2022/06/17 02:27:31;;;;;;;;;;;;;;;17.19;60.26;102275.19;5060885;28;19935;-60
2022/06/17 02:29:57;;;;;;;;;;;;;;;17.13;60.00;102273.19;5060149;28;19947;-60
2022/06/17 02:32:23;;;;;;;;;;;;;;;17.12;59.84;102274.22;5061187;28;20382;-59
2022/06/17 02:34:56;;;;;;;;;;;;;;;17.13;59.81;102275.88;5043962;28;20010;-60
2022/06/17 02:37:22;;;;;;;;;;;;;;;17.12;59.53;102274.22;5061769;28;19983;-59
2022/06/17 02:39:49;;;;;;;;;;;;;;;17.06;60.47;102271.19;5053142;28;19994;-60
2022/06/17 02:42:17;;;;;;;;;;;;;;;17.02;59.73;102269.84;5067272;28;20343;-60
2022/06/17 02:44:42;;;;;;;;;;;;;;;17.00;60.10;102262.94;5059776;28;19928;-61
2022/06/17 02:47:08;;;;;;;;;;;;;;;16.94;61.87;102273.34;5059109;28;19931;-60
2022/06/17 02:49:35;;;;;;;;;;;;;;;16.89;60.61;102270.34;5057922;28;19990;-60
2022/06/17 02:52:02;;;;;;;;;;;;;;;16.88;60.68;102271.34;5061948;28;20021;-61
2022/06/17 02:54:31;;;;;;;;;;;;;;;16.86;60.34;102269.81;5060740;28;19924;-60
2022/06/17 02:56:57;;;;;;;;;;;;;;;16.84;59.88;102271.84;5061445;28;19935;-60
2022/06/17 02:59:29;;;;;;;;;;;;;;;16.80;62.21;102272.19;5060516;28;19924;-61
2022/06/17 03:01:56;;;;;;;;;;;;;;;16.76;60.97;102276.22;5061904;28;20193;-60
2022/06/17 03:04:24;;;;;;;;;;;;;;;16.75;61.53;102274.53;5060646;28;19969;-61
2022/06/17 03:06:52;;;;;;;;;;;;;;;16.73;61.01;102265.81;5056771;28;19925;-59
2022/06/17 03:09:22;;;;;;;;;;;;;;;16.73;60.39;102271.16;5054798;28;19978;-59
2022/06/17 03:12:06;;;;;;;;;;;;;;;16.73;60.40;102268.50;5044924;28;19995;-60
2022/06/17 03:14:37;;;;;;;;;;;;;;;16.74;60.84;102266.66;5066423;28;20398;-60
2022/06/17 03:17:05;;;;;;;;;;;;;;;16.75;60.86;102269.19;5060410;28;19936;-60
2022/06/17 03:19:32;;;;;;;;;;;;;;;16.76;60.44;102270.84;5064388;28;19928;-61
2022/06/17 03:21:57;;;;;;;;;;;;;;;16.74;60.50;102267.50;5065067;28;19972;-61
2022/06/17 03:24:24;;;;;;;;;;;;;;;16.74;60.21;102272.88;5066397;28;19987;-60
2022/06/17 03:26:54;;;;;;;;;;;;;;;16.72;60.60;102269.50;5064513;28;19921;-60
2022/06/17 03:29:21;;;;;;;;;;;;;;;16.72;61.15;102282.06;5065713;28;20019;-59
2022/06/17 03:31:49;;;;;;;;;;;;;;;16.73;60.67;102291.78;5062966;28;19924;-60
2022/06/17 03:34:30;;;;;;;;;;;;;;;16.73;60.40;102292.59;5061462;28;19935;-61
2022/06/17 03:37:00;;;;;;;;;;;;;;;16.74;60.49;102291.63;5068385;28;20401;-60
2022/06/17 03:39:38;;;;;;;;;;;;;;;16.75;60.58;102295.97;5065497;28;19974;-59
2022/06/17 03:42:12;;;;;;;;;;;;;;;16.77;61.09;102299.31;5062734;28;20489;-61
2022/06/17 03:44:48;;;;;;;;;;;;;;;16.77;61.47;102302.00;5061458;28;19928;-60
2022/06/17 03:47:30;;;;;;;;;;;;;;;16.78;61.37;102305.50;5061604;28;19931;-60
2022/06/17 03:49:58;;;;;;;;;;;;;;;16.79;61.11;102309.84;5062391;28;20825;-59
2022/06/17 03:52:46;;;;;;;;;;;;;;;16.79;61.13;102313.34;5062120;28;19920;-60
2022/06/17 03:55:18;;;;;;;;;;;;;;;16.81;61.41;102313.19;5063482;28;20493;-60
2022/06/17 03:57:45;;;;;;;;;;;;;;;16.80;60.94;102301.66;5061314;28;19924;-59
2022/06/17 04:00:22;;;;;;;;;;;;;;;16.84;61.19;102309.34;5064743;28;20480;-60
2022/06/17 04:02:48;;;;;;;;;;;;;;;16.85;61.47;102305.66;5058949;28;19928;-60
2022/06/17 04:05:15;;;;;;;;;;;;;;;16.87;62.15;102295.63;5062943;28;19925;-60
2022/06/17 04:07:41;;;;;;;;;;;;;;;16.89;61.97;102301.66;5063135;28;19935;-60
2022/06/17 04:10:09;;;;;;;;;;;;;;;16.90;62.89;102304.16;5064941;28;20279;-59
2022/06/17 04:12:34;;;;;;;;;;;;;;;16.90;61.95;102303.31;5062496;28;19935;-60
2022/06/17 04:15:05;;;;;;;;;;;;;;;16.92;61.53;102303.97;5064377;28;20510;-60
2022/06/17 04:17:39;;;;;;;;;;;;;;;16.94;62.09;102304.66;5061558;28;19924;-60
2022/06/17 04:20:04;;;;;;;;;;;;;;;16.96;61.80;102301.81;5062828;28;19951;-61
2022/06/17 04:22:31;;;;;;;;;;;;;;;16.95;62.34;102300.97;5064406;28;20351;-59
2022/06/17 04:25:01;;;;;;;;;;;;;;;16.97;62.29;102290.91;5061073;28;19959;-59
2022/06/17 04:27:56;;;;;;;;;;;;;;;17.00;61.88;102287.91;5061484;28;19924;-60
2022/06/17 04:30:22;;;;;;;;;;;;;;;17.03;62.03;102282.25;5057950;28;19924;-60
2022/06/17 04:32:52;;;;;;;;;;;;;;;17.05;62.13;102293.66;5060089;28;19990;-59
2022/06/17 04:35:17;;;;;;;;;;;;;;;17.08;61.52;102290.59;5058412;28;19928;-60
2022/06/17 04:37:44;;;;;;;;;;;;;;;17.13;61.76;102286.59;5062796;28;20378;-60
2022/06/17 04:40:18;;;;;;;;;;;;;;;17.14;61.85;102280.22;5061266;28;19954;-61
2022/06/17 04:42:44;;;;;;;;;;;;;;;17.18;61.86;102270.84;5061283;28;19931;-59
2022/06/17 04:45:17;;;;;;;;;;;;;;;17.19;61.58;102269.84;5044423;28;19924;-59
2022/06/17 04:47:43;;;;;;;;;;;;;;;17.21;61.60;102278.53;5071431;28;20351;-61
2022/06/17 04:50:12;;;;;;;;;;;;;;;17.23;61.64;102265.81;5062820;28;20090;-61
2022/06/17 04:52:41;;;;;;;;;;;;;;;17.26;61.18;102259.28;5062065;28;20379;-60
2022/06/17 04:55:10;;;;;;;;;;;;;;;17.28;61.67;102263.47;5042372;28;20419;-59
2022/06/17 04:57:38;;;;;;;;;;;;;;;17.30;60.88;102260.59;5064735;28;19931;-59
2022/06/17 05:00:03;;;;;;;;;;;;;;;17.32;60.91;102253.22;5062018;28;19985;-61
2022/06/17 05:02:30;;;;;;;;;;;;;;;17.36;60.48;102259.06;5059718;28;20371;-61
2022/06/17 05:04:57;;;;;;;;;;;;;;;17.41;60.68;102257.53;5062946;28;20585;-60
2022/06/17 05:07:23;;;;;;;;;;;;;;;17.44;60.57;102259.88;5062566;28;19921;-59
2022/06/17 05:09:50;;;;;;;;;;;;;;;17.50;59.96;102263.72;5045351;28;19950;-59
2022/06/17 05:12:15;;;;;;;;;;;;;;;17.55;61.32;102266.72;5063744;28;19960;-61
2022/06/17 05:14:52;;;;;;;;;;;;;;;17.55;61.14;102263.19;5057928;28;19963;-59
2022/06/17 05:17:17;;;;;;;;;;;;;;;17.58;60.77;102266.34;5063179;28;19939;-59
2022/06/17 05:19:43;;;;;;;;;;;;;;;17.62;60.48;102269.56;5063933;28;19924;-59
2022/06/17 05:22:14;;;;;;;;;;;;;;;17.65;60.20;102258.47;5063329;28;20751;-59
2022/06/17 05:24:40;;;;;;;;;;;;;;;17.68;60.32;102257.28;5061777;28;19929;-59
2022/06/17 05:27:05;;;;;;;;;;;;;;;17.69;60.77;102259.78;5063767;28;19994;-59
2022/06/17 05:29:32;;;;;;;;;;;;;;;17.74;60.33;102267.31;5062361;28;20458;-60
2022/06/17 05:31:57;;;;;;;;;;;;;;;17.78;60.19;102268.63;5063420;28;19920;-60
2022/06/17 05:34:22;;;;;;;;;;;;;;;17.81;60.05;102257.53;5063545;28;19925;-61
2022/06/17 05:36:47;;;;;;;;;;;;;;;17.83;60.33;102254.69;5059956;28;19920;-59
2022/06/17 05:39:13;;;;;;;;;;;;;;;17.84;60.78;102251.84;5063765;28;19921;-61
2022/06/17 05:41:38;;;;;;;;;;;;;;;17.87;59.98;102254.16;5061513;28;20290;-59
2022/06/17 05:44:04;;;;;;;;;;;;;;;17.95;60.25;102255.16;5056564;28;20527;-60
2022/06/17 05:46:29;;;;;;;;;;;;;;;18.00;60.51;102253.59;5056441;28;19974;-59
2022/06/17 05:48:54;;;;;;;;;;;;;;;18.05;59.97;102262.97;5053829;28;19925;-61
2022/06/17 05:51:20;;;;;;;;;;;;;;;18.08;59.62;102246.53;5056706;28;19944;-59
2022/06/17 05:53:45;;;;;;;;;;;;;;;18.09;59.35;102240.16;5061793;28;19924;-60
2022/06/17 05:56:10;;;;;;;;;;;;;;;18.10;59.89;102244.50;5060946;28;20019;-64
2022/06/17 05:58:35;;;;;;;;;;;;;;;18.14;59.81;102241.31;5059251;28;19971;-63
2022/06/17 06:01:01;;;;;;;;;;;;;;;18.18;59.91;102233.72;5056649;28;20298;-63
2022/06/17 06:03:27;;;;;;;;;;;;;;;18.23;60.80;102234.03;5057248;28;19920;-62
2022/06/17 06:05:52;;;;;;;;;;;;;;;18.27;59.58;102238.00;5056581;28;19928;-63
2022/06/17 06:08:18;;;;;;;;;;;;;;;18.31;59.86;102230.47;5055745;28;19966;-63
2022/06/17 06:10:43;;;;;;;;;;;;;;;18.35;59.80;102236.31;5055135;28;19924;-62
2022/06/17 06:13:13;;;;;;;;;;;;;;;18.38;59.87;102241.28;5052741;28;19967;-63
2022/06/17 06:15:41;;;;;;;;;;;;;;;18.41;59.23;102228.34;5047072;28;20186;-63
2022/06/17 06:18:08;;;;;;;;;;;;;;;18.41;59.81;102231.03;5048682;28;19924;-63
2022/06/17 06:20:33;;;;;;;;;;;;;;;18.42;61.13;102221.94;5053069;28;19928;-62
2022/06/17 06:22:58;;;;;;;;;;;;;;;18.41;59.25;102220.28;5051411;28;19987;-60
2022/06/17 06:25:24;;;;;;;;;;;;;;;18.46;60.09;102226.97;5053421;28;19921;-63
2022/06/17 06:27:49;;;;;;;;;;;;;;;18.48;60.05;102225.78;5052022;28;19925;-62
2022/06/17 06:30:35;;;;;;;;;;;;;;;18.51;59.56;102241.53;5053639;28;19924;-59
2022/06/17 06:33:01;;;;;;;;;;;;;;;18.55;59.63;102240.16;5051782;28;19935;-63
2022/06/17 06:35:28;;;;;;;;;;;;;;;18.56;58.74;102232.94;5036736;28;20276;-61
2022/06/17 06:37:53;;;;;;;;;;;;;;;18.61;58.57;102248.50;5055748;28;19928;-62
2022/06/17 06:40:19;;;;;;;;;;;;;;;18.63;59.19;102247.31;5052752;28;20675;-59
2022/06/17 06:42:46;;;;;;;;;;;;;;;18.69;58.75;102248.44;5062022;28;20353;-60
2022/06/17 06:45:14;;;;;;;;;;;;;;;18.72;58.40;102252.59;5061364;28;19931;-63
2022/06/17 06:47:40;;;;;;;;;;;;;;;18.75;58.53;102260.31;5064895;28;19928;-65
2022/06/17 06:50:06;;;;;;;;;;;;;;;18.79;58.61;102248.16;5064996;28;19928;-64
2022/06/17 06:52:31;;;;;;;;;;;;;;;18.84;58.47;102245.78;5059128;28;19974;-65
2022/06/17 06:54:56;;;;;;;;;;;;;;;18.90;58.33;102249.59;5060331;28;19924;-63
2022/06/17 06:57:22;;;;;;;;;;;;;;;18.99;58.22;102242.28;5058382;28;20046;-61
2022/06/17 06:59:47;;;;;;;;;;;;;;;19.07;57.88;102250.28;5059394;28;19920;-61
2022/06/17 07:02:12;;;;;;;;;;;;;;;19.16;57.47;102262.66;5059285;28;19977;-58
2022/06/17 07:04:37;;;;;;;;;;;;;;;19.30;57.52;102262.84;5060200;28;19928;-63
2022/06/17 07:07:04;;;;;;;;;;;;;;;19.43;57.09;102262.16;5061344;28;19924;-61
2022/06/17 07:09:29;;;;;;;;;;;;;;;19.56;56.84;102274.97;5058529;28;20030;-60
2022/06/17 07:11:54;;;;;;;;;;;;;;;19.67;56.64;102266.41;5059813;28;20390;-61
2022/06/17 07:14:19;;;;;;;;;;;;;;;19.81;56.75;102259.34;5059050;28;19978;-62
2022/06/17 07:16:45;;;;;;;;;;;;;;;19.93;55.14;102251.59;5041121;28;20822;-63
2022/06/17 07:19:15;;;;;;;;;;;;;;;20.00;56.27;102247.19;5056018;28;19928;-63
2022/06/17 07:21:40;;;;;;;;;;;;;;;20.07;55.22;102247.25;5053866;28;19928;-63
2022/06/17 07:24:06;;;;;;;;;;;;;;;20.12;54.67;102252.88;5053652;28;20355;-62
2022/06/17 07:26:31;;;;;;;;;;;;;;;20.23;55.31;102258.81;5055811;28;19925;-61
2022/06/17 07:28:56;;;;;;;;;;;;;;;20.32;55.43;102246.03;5057603;28;19953;-61
2022/06/17 07:31:22;;;;;;;;;;;;;;;20.40;54.79;102251.28;5059484;28;20382;-62
2022/06/17 07:33:48;;;;;;;;;;;;;;;20.48;55.17;102244.94;5052359;28;19924;-60
2022/06/17 07:41:43;;;;;;;;;;;;;;;20.66;53.06;102233.69;5059360;28;20070;-59
2022/06/17 07:44:08;;;;;;;;;;;;;;;20.69;52.21;102246.78;5053724;28;19937;-61
2022/06/17 07:46:33;;;;;;;;;;;;;;;20.75;53.95;102254.09;5053618;28;19935;-60
2022/06/17 07:48:59;;;;;;;;;;;;;;;20.88;53.52;102255.25;5056246;28;19928;-61
2022/06/17 07:51:24;;;;;;;;;;;;;;;20.98;53.43;102253.03;5058885;28;19928;-60
2022/06/17 07:53:49;;;;;;;;;;;;;;;21.06;51.70;102244.78;5054606;28;19924;-59
2022/06/17 07:56:15;;;;;;;;;;;;;;;21.19;53.18;102240.50;5055237;28;19944;-60
2022/06/17 07:58:40;;;;;;;;;;;;;;;21.28;52.79;102243.88;5053147;28;19952;-61
2022/06/17 08:01:06;;;;;;;;;;;;;;;21.39;52.57;102247.84;5055551;28;19993;-61
2022/06/17 08:03:31;;;;;;;;;;;;;;;21.50;51.91;102247.28;5057567;28;19947;-60
2022/06/17 08:05:58;;;;;;;;;;;;;;;21.62;52.00;102250.25;5056180;28;19924;-59
2022/06/17 08:08:24;;;;;;;;;;;;;;;21.73;50.84;102248.88;5055389;28;19924;-62
2022/06/17 08:10:50;;;;;;;;;;;;;;;21.86;51.74;102257.00;5054035;28;20341;-60
2022/06/17 08:13:15;;;;;;;;;;;;;;;21.92;51.84;102257.25;5051642;28;19924;-62
2022/06/17 08:15:42;;;;;;;;;;;;;;;21.96;49.60;102262.03;5038582;28;19971;-60
2022/06/17 08:18:07;;;;;;;;;;;;;;;22.04;51.39;102258.31;5059611;28;19970;-61
2022/06/17 08:20:34;;;;;;;;;;;;;;;22.20;50.45;102262.50;5063054;28;19976;-61
2022/06/17 08:23:02;;;;;;;;;;;;;;;22.29;49.99;102265.84;5060336;28;19928;-61
2022/06/17 08:25:27;;;;;;;;;;;;;;;22.40;50.59;102270.63;5054774;28;20825;-60
2022/06/17 08:27:54;;;;;;;;;;;;;;;22.52;47.32;102264.66;5055388;28;19925;-60
2022/06/17 08:30:21;;;;;;;;;;;;;;;22.70;48.82;102259.44;5058763;28;19925;-61
2022/06/17 08:32:47;;;;;;;;;;;;;;;22.76;49.04;102255.09;5054096;28;20658;-62
2022/06/17 08:35:16;;;;;;;;;;;;;;;22.92;48.46;102251.13;5054055;28;19920;-61
2022/06/17 08:37:42;;;;;;;;;;;;;;;23.07;47.83;102244.63;5054551;28;19943;-59
2022/06/17 08:40:17;;;;;;;;;;;;;;;23.13;48.42;102237.56;5061192;28;20342;-60
2022/06/17 08:42:52;;;;;;;;;;;;;;;23.12;46.53;102228.59;5054439;28;20450;-59
2022/06/17 08:45:20;;;;;;;;;;;;;;;23.09;45.44;102234.44;5051440;28;19924;-63
2022/06/17 08:48:10;;;;;;;;;;;;;;;23.10;45.61;102236.09;5053307;28;19954;-60
2022/06/17 08:50:56;;;;;;;;;;;;;;;23.10;46.93;102249.63;5055145;28;19924;-61
2022/06/17 08:53:33;;;;;;;;;;;;;;;23.09;46.97;102254.19;5056419;28;19939;-59
2022/06/17 08:56:05;;;;;;;;;;;;;;;23.18;47.33;102246.69;5058947;28;19924;-61
2022/06/17 08:58:47;;;;;;;;;;;;;;;23.27;46.90;102246.47;5058044;28;19932;-62
2022/06/17 09:01:17;;;;;;;;;;;;;;;23.37;44.73;102249.56;5056577;28;19924;-62
2022/06/17 09:04:01;;;;;;;;;;;;;;;23.46;44.59;102247.47;5062083;28;19924;-60
2022/06/17 09:06:32;;;;;;;;;;;;;;;23.59;44.92;102247.41;5058689;28;19936;-63
2022/06/17 09:09:16;;;;;;;;;;;;;;;23.68;45.56;102250.69;5052607;28;20781;-61
2022/06/17 09:11:41;;;;;;;;;;;;;;;23.83;44.70;102260.44;5059503;28;19935;-60
2022/06/17 09:14:27;;;;;;;;;;;;;;;23.89;44.21;102246.03;5064287;28;19924;-60
2022/06/17 09:17:04;;;;;;;;;;;;;;;23.98;44.37;102239.28;5060017;28;19924;-60
2022/06/17 09:19:31;;;;;;;;;;;;;;;24.10;45.12;102235.91;5065048;28;20333;-62
2022/06/17 09:22:08;;;;;;;;;;;;;;;24.20;44.65;102227.28;5054575;28;19925;-61
2022/06/17 09:24:37;;;;;;;;;;;;;;;24.31;43.69;102238.25;5052955;28;19925;-63
2022/06/17 09:27:04;;;;;;;;;;;;;;;24.43;43.35;102245.69;5052547;28;19924;-61
2022/06/17 09:29:53;;;;;;;;;;;;;;;24.54;43.70;102252.25;5055179;28;20023;-60
2022/06/17 09:32:25;;;;;;;;;;;;;;;24.62;43.95;102243.03;5049541;28;19928;-60
2022/06/17 09:34:50;;;;;;;;;;;;;;;24.70;41.29;102234.59;5061371;28;20264;-60
2022/06/17 09:37:24;;;;;;;;;;;;;;;24.82;43.19;102243.69;5061635;28;19932;-60
2022/06/17 09:39:53;;;;;;;;;;;;;;;24.83;41.28;102239.09;5063010;28;19928;-62
2022/06/17 09:42:26;;;;;;;;;;;;;;;24.85;43.73;102237.81;5058098;28;19971;-60
2022/06/17 09:44:58;;;;;;;;;;;;;;;24.90;43.45;102239.00;5068910;28;19928;-62
2022/06/17 09:47:32;;;;;;;;;;;;;;;24.98;40.61;102238.75;5063603;28;19932;-61
2022/06/17 09:50:03;;;;;;;;;;;;;;;25.04;42.07;102237.84;5064154;28;20054;-62
2022/06/17 09:52:33;;;;;;;;;;;;;;;25.12;40.74;102236.72;5057656;28;19925;-60
2022/06/17 09:55:06;;;;;;;;;;;;;;;25.19;42.59;102237.47;5058057;28;20425;-62
2022/06/17 09:57:44;;;;;;;;;;;;;;;25.25;42.08;102235.72;5062983;28;20318;-62
2022/06/17 10:00:15;;;;;;;;;;;;;;;25.35;41.03;102237.88;5062686;28;19925;-60
2022/06/17 10:02:50;;;;;;;;;;;;;;;25.43;39.36;102231.31;5062650;28;19978;-58
2022/06/17 10:05:36;;;;;;;;;;;;;;;25.47;41.44;102227.09;5064328;28;19959;-62
2022/06/17 10:08:20;;;;;;;;;;;;;;;25.54;40.90;102222.44;5055532;28;19928;-63
2022/06/17 10:11:04;;;;;;;;;;;;;;;25.61;40.65;102216.94;5069476;28;19927;-62
2022/06/17 10:13:42;;;;;;;;;;;;;;;25.65;40.63;102210.81;5064032;28;19920;-59
2022/06/17 10:19:19;;;;;;;;;;;;;;;25.76;39.34;102213.81;5051915;28;20340;-60
2022/06/17 10:22:03;;;;;;;;;;;;;;;25.84;40.32;102205.31;5065007;28;19928;-59
2022/06/17 10:24:34;;;;;;;;;;;;;;;25.97;40.35;102200.75;5066176;28;20624;-60
2022/06/17 10:27:18;;;;;;;;;;;;;;;26.05;39.77;102195.78;5067275;28;19920;-60
2022/06/17 10:29:54;;;;;;;;;;;;;;;26.15;37.85;102192.50;5062256;28;20041;-61
2022/06/17 10:32:20;;;;;;;;;;;;;;;26.25;39.37;102194.66;5056788;28;20024;-60
2022/06/17 10:34:48;;;;;;;;;;;;;;;26.41;36.85;102197.75;5061144;28;20363;-62
2022/06/17 10:37:14;;;;;;;;;;;;;;;26.31;38.71;102198.34;5063679;28;19994;-60
2022/06/17 10:39:40;;;;;;;;;;;;;;;26.37;34.99;102191.97;5057882;28;20764;-56
2022/06/17 10:42:07;;;;;;;;;;;;;;;26.41;35.65;102187.72;5063172;28;19990;-59
2022/06/17 10:44:32;;;;;;;;;;;;;;;26.51;37.73;102199.88;5062034;28;20422;-62
2022/06/17 10:46:58;;;;;;;;;;;;;;;26.61;37.41;102197.41;5062742;28;19928;-62
2022/06/17 10:49:34;;;;;;;;;;;;;;;26.71;35.00;102191.38;5070898;28;19923;-63
2022/06/17 10:52:01;;;;;;;;;;;;;;;26.79;36.63;102190.19;5066847;28;19924;-62
2022/06/17 10:54:34;;;;;;;;;;;;;;;26.82;36.87;102197.84;5061952;28;19974;-61
2022/06/17 10:57:03;;;;;;;;;;;;;;;26.93;35.62;102185.34;5054505;28;19920;-61
2022/06/17 10:59:30;;;;;;;;;;;;;;;26.87;36.10;102181.63;5063667;28;20024;-61
2022/06/17 11:01:56;;;;;;;;;;;;;;;26.86;36.62;102183.56;5068185;28;19931;-60
2022/06/17 11:04:44;;;;;;;;;;;;;;;26.98;35.98;102185.44;5066574;28;19923;-60
2022/06/17 11:07:17;;;;;;;;;;;;;;;27.02;36.31;102174.91;5067951;28;19925;-60
2022/06/17 11:09:48;;;;;;;;;;;;;;;27.08;36.38;102168.50;5063547;28;19924;-62
2022/06/17 11:12:22;;;;;;;;;;;;;;;27.16;36.54;102162.66;5067561;28;20517;-60
2022/06/17 11:14:48;;;;;;;;;;;;;;;27.24;36.36;102167.72;5069005;28;19924;-64
2022/06/17 11:17:19;;;;;;;;;;;;;;;27.31;35.72;102158.56;5067632;28;19935;-63
2022/06/17 11:19:48;;;;;;;;;;;;;;;27.34;36.14;102160.81;5061542;28;19974;-63
2022/06/17 11:22:19;;;;;;;;;;;;;;;27.38;35.02;102156.56;5057145;28;19920;-63
2022/06/17 11:24:52;;;;;;;;;;;;;;;27.46;35.36;102145.25;5068984;28;20031;-63
2022/06/17 11:27:32;;;;;;;;;;;;;;;27.56;35.58;102141.88;5067142;28;19996;-64
2022/06/17 11:30:16;;;;;;;;;;;;;;;27.64;35.56;102137.97;5069679;28;20402;-65
2022/06/17 11:32:44;;;;;;;;;;;;;;;27.74;33.70;102143.59;5069075;28;19938;-63
2022/06/17 11:35:17;;;;;;;;;;;;;;;27.85;35.18;102138.31;5066038;28;20905;-62
2022/06/17 11:37:46;;;;;;;;;;;;;;;27.87;32.82;102136.97;5067615;28;19924;-64
2022/06/17 11:40:22;;;;;;;;;;;;;;;27.93;31.48;102135.19;5061145;28;20019;-65
2022/06/17 11:42:58;;;;;;;;;;;;;;;27.94;33.76;102131.38;5066471;28;19920;-64
2022/06/17 11:45:32;;;;;;;;;;;;;;;28.01;34.83;102132.03;5059926;28;20001;-65
2022/06/17 11:48:03;;;;;;;;;;;;;;;28.15;33.68;102128.94;5066923;28;19925;-64
2022/06/17 11:50:31;;;;;;;;;;;;;;;28.16;34.23;102125.97;5065946;28;20400;-63
2022/06/17 11:53:16;;;;;;;;;;;;;;;28.28;33.68;102125.94;5068609;28;20306;-65
2022/06/17 11:55:44;;;;;;;;;;;;;;;28.38;33.76;102118.94;5064949;28;19936;-65
2022/06/17 11:58:10;;;;;;;;;;;;;;;28.46;32.61;102104.88;5046488;28;20299;-65
2022/06/17 12:00:40;;;;;;;;;;;;;;;28.48;32.29;102102.72;5057787;28;19955;-64
2022/06/17 12:03:06;;;;;;;;;;;;;;;28.54;32.90;102096.25;5039767;28;20412;-63
2022/06/17 12:05:32;;;;;;;;;;;;;;;28.60;33.00;102089.78;5056013;28;19925;-64
2022/06/17 12:08:14;;;;;;;;;;;;;;;28.68;32.67;102087.69;5061787;28;19932;-64
2022/06/17 12:10:45;;;;;;;;;;;;;;;28.72;29.94;102088.84;5062261;28;19924;-62
2022/06/17 12:13:11;;;;;;;;;;;;;;;28.74;32.29;102089.41;5066802;28;19924;-65
2022/06/17 12:15:47;;;;;;;;;;;;;;;28.80;32.76;102090.31;5058285;28;19924;-62
2022/06/17 12:18:17;;;;;;;;;;;;;;;28.99;30.62;102079.88;5057870;28;19928;-65
2022/06/17 12:20:53;;;;;;;;;;;;;;;28.91;30.50;102077.63;5062169;28;19996;-65
2022/06/17 12:23:26;;;;;;;;;;;;;;;28.99;29.71;102077.97;5053989;28;19925;-64
2022/06/17 12:25:56;;;;;;;;;;;;;;;28.93;30.19;102078.16;5062047;28;19928;-65
2022/06/17 12:28:28;;;;;;;;;;;;;;;28.95;31.50;102076.03;5064008;28;19955;-64
2022/06/17 12:31:01;;;;;;;;;;;;;;;29.03;30.64;102074.72;5064663;28;20259;-59
2022/06/17 12:33:45;;;;;;;;;;;;;;;29.08;30.81;102067.41;5062355;28;19924;-63
2022/06/17 12:36:10;;;;;;;;;;;;;;;29.22;31.38;102072.47;5062367;28;19971;-61
2022/06/17 12:38:51;;;;;;;;;;;;;;;29.37;30.48;102072.63;5062235;28;20395;-59
2022/06/17 12:41:16;;;;;;;;;;;;;;;29.44;28.89;102063.38;5063353;28;19978;-58
2022/06/17 12:43:48;;;;;;;;;;;;;;;29.34;29.21;102072.28;5056484;28;19932;-61
2022/06/17 12:46:13;;;;;;;;;;;;;;;29.20;28.94;102064.53;5060819;28;20035;-58
2022/06/17 12:48:44;;;;;;;;;;;;;;;29.22;29.11;102072.47;5060847;28;20374;-60
2022/06/17 12:54:17;;;;;;;;;;;;;;;29.24;28.43;102064.81;5062913;28;19978;-60
2022/06/17 12:57:02;;;;;;;;;;;;;;;29.17;29.43;102058.75;5070939;28;19931;-61
2022/06/17 12:59:36;;;;;;;;;;;;;;;29.11;30.39;102061.44;5059079;28;19979;-61
2022/06/17 13:02:12;;;;;;;;;;;;;;;29.28;30.57;102063.22;5051405;28;20019;-59